createdAt,value
2022-10-07T00:18:54.774Z,19.60
2022-10-07T00:40:41.544Z,23.80
2022-10-07T01:02:28.804Z,19.40
2022-10-07T01:24:26.248Z,19.80
2022-10-07T01:46:16.599Z,22.30
2022-10-07T02:08:17.938Z,22.60
2022-10-07T02:30:07.520Z,23.20
2022-10-07T02:51:59.412Z,21.50
2022-10-07T03:13:46.561Z,20.60
2022-10-07T03:35:32.855Z,19.50
2022-10-07T03:57:36.567Z,25.20
2022-10-07T04:19:22.574Z,20.50
2022-10-07T04:41:09.309Z,24.50
2022-10-07T05:02:57.198Z,24.40
2022-10-07T05:24:43.520Z,22.90
2022-10-07T05:46:30.001Z,22.00
2022-10-07T06:08:16.739Z,20.40
2022-10-07T06:30:03.369Z,21.30
2022-10-07T06:51:49.311Z,19.40
2022-10-07T07:13:36.210Z,21.30
2022-10-07T07:35:23.346Z,21.90
2022-10-07T07:57:09.774Z,20.60
2022-10-07T08:18:56.804Z,17.00
2022-10-07T08:40:51.734Z,13.70
2022-10-07T09:02:48.790Z,11.70
2022-10-07T09:24:36.088Z,13.00
2022-10-07T09:46:43.288Z,11.30
2022-10-07T10:08:32.701Z,13.10
2022-10-07T10:30:23.889Z,12.20
2022-10-07T10:52:38.045Z,11.60
2022-10-07T11:14:25.536Z,11.30
2022-10-07T11:36:18.963Z,11.80
2022-10-07T11:58:06.477Z,14.80
2022-10-07T12:20:37.373Z,13.40
2022-10-07T12:42:59.918Z,12.70
2022-10-07T13:05:08.762Z,13.00
2022-10-07T13:26:56.038Z,11.50
2022-10-07T13:48:49.048Z,11.50
2022-10-07T14:10:36.041Z,16.90
2022-10-07T14:32:41.320Z,19.60
2022-10-07T14:54:27.603Z,15.90
2022-10-07T15:16:17.413Z,14.70
2022-10-07T15:38:03.276Z,25.10
2022-10-07T15:59:48.905Z,14.60
2022-10-07T16:21:35.855Z,19.40
2022-10-07T16:43:21.561Z,17.20
2022-10-07T17:05:09.150Z,15.80
2022-10-07T17:26:56.266Z,19.10
2022-10-07T17:48:45.105Z,20.80
2022-10-07T18:10:31.203Z,24.30
2022-10-07T18:32:17.495Z,29.10
2022-10-07T18:54:03.551Z,24.30
2022-10-07T19:15:49.435Z,26.10
2022-10-07T19:37:36.373Z,23.60
2022-10-07T19:59:22.166Z,18.30
2022-10-07T20:21:12.090Z,22.60
2022-10-07T20:43:00.647Z,22.70
2022-10-07T21:04:48.203Z,15.50
2022-10-07T21:26:34.491Z,18.30
2022-10-07T21:48:20.652Z,13.80
2022-10-07T22:10:07.406Z,12.20
2022-10-07T22:31:53.260Z,11.90
2022-10-07T22:53:40.412Z,11.90
2022-10-07T23:15:26.307Z,16.20
2022-10-07T23:37:12.074Z,13.70
2022-10-07T23:58:57.825Z,11.90
